sensor_id;sensor_type;location;lat;lon;timestamp;pressure;altitude;pressure_sealevel;temperature;humidity
38227;BME280;24026;49.446;8.576;2023-02-16T00:02:08;101660.22;;;11.76;39.04
38227;BME280;24026;49.446;8.576;2023-02-16T00:04:30;101662.03;;;11.76;39.27
38227;BME280;24026;49.446;8.576;2023-02-16T00:06:51;101670.47;;;11.73;39.32
38227;BME280;24026;49.446;8.576;2023-02-16T00:09:11;101670.47;;;11.73;39.44
38227;BME280;24026;49.446;8.576;2023-02-16T00:11:33;101656.34;;;11.72;39.41
38227;BME280;24026;49.446;8.576;2023-02-16T00:14:13;101652.28;;;11.70;39.23
38227;BME280;24026;49.446;8.576;2023-02-16T00:16:35;101653.31;;;11.68;39.51
38227;BME280;24026;49.446;8.576;2023-02-16T00:18:55;101649.84;;;11.68;39.42
38227;BME280;24026;49.446;8.576;2023-02-16T00:21:16;101644.72;;;11.66;39.44
38227;BME280;24026;49.446;8.576;2023-02-16T00:23:36;101644.72;;;11.66;39.27
38227;BME280;24026;49.446;8.576;2023-02-16T00:25:57;101649.84;;;11.68;39.36
38227;BME280;24026;49.446;8.576;2023-02-16T00:28:19;101648.41;;;11.65;39.43
38227;BME280;24026;49.446;8.576;2023-02-16T00:30:40;101648.41;;;11.65;39.50
38227;BME280;24026;49.446;8.576;2023-02-16T00:33:01;101646.81;;;11.64;39.39
38227;BME280;24026;49.446;8.576;2023-02-16T00:35:22;101650.47;;;11.63;39.54
38227;BME280;24026;49.446;8.576;2023-02-16T00:37:43;101658.25;;;11.65;39.57
38227;BME280;24026;49.446;8.576;2023-02-16T00:40:03;101662.78;;;11.64;39.44
38227;BME280;24026;49.446;8.576;2023-02-16T00:42:27;101665.88;;;11.61;39.39
38227;BME280;24026;49.446;8.576;2023-02-16T00:44:52;101652.56;;;11.61;39.71
38227;BME280;24026;49.446;8.576;2023-02-16T00:49:33;101665.25;;;11.59;39.75
38227;BME280;24026;49.446;8.576;2023-02-16T00:51:53;101664.44;;;11.59;39.58
38227;BME280;24026;49.446;8.576;2023-02-16T00:54:14;101659.13;;;11.59;39.79
38227;BME280;24026;49.446;8.576;2023-02-16T00:56:35;101668.16;;;11.58;39.81
38227;BME280;24026;49.446;8.576;2023-02-16T00:58:56;101671.03;;;11.56;39.54
38227;BME280;24026;49.446;8.576;2023-02-16T01:01:17;101664.66;;;11.57;39.66
38227;BME280;24026;49.446;8.576;2023-02-16T01:03:40;101659.53;;;11.56;39.56
38227;BME280;24026;49.446;8.576;2023-02-16T01:06:01;101669.38;;;11.55;39.44
38227;BME280;24026;49.446;8.576;2023-02-16T01:08:40;101667.75;;;11.54;39.68
38227;BME280;24026;49.446;8.576;2023-02-16T01:11:20;101661.03;;;11.52;39.86
38227;BME280;24026;49.446;8.576;2023-02-16T01:13:48;101658.38;;;11.52;39.57
38227;BME280;24026;49.446;8.576;2023-02-16T01:16:14;101657.56;;;11.51;39.85
38227;BME280;24026;49.446;8.576;2023-02-16T01:18:35;101662.03;;;11.50;39.76
38227;BME280;24026;49.446;8.576;2023-02-16T01:20:55;101657.56;;;11.51;39.79
38227;BME280;24026;49.446;8.576;2023-02-16T01:23:16;101658.56;;;11.50;39.78
38227;BME280;24026;49.446;8.576;2023-02-16T01:25:36;101660.66;;;11.48;39.86
38227;BME280;24026;49.446;8.576;2023-02-16T01:27:57;101655.09;;;11.49;39.72
38227;BME280;24026;49.446;8.576;2023-02-16T01:30:20;101661.66;;;11.47;39.69
38227;BME280;24026;49.446;8.576;2023-02-16T01:32:41;101663.53;;;11.46;39.77
38227;BME280;24026;49.446;8.576;2023-02-16T01:35:02;101664.53;;;11.45;39.81
38227;BME280;24026;49.446;8.576;2023-02-16T01:37:22;101655.16;;;11.43;39.96
38227;BME280;24026;49.446;8.576;2023-02-16T01:39:43;101647.16;;;11.43;39.90
38227;BME280;24026;49.446;8.576;2023-02-16T01:42:14;101650.25;;;11.40;39.99
38227;BME280;24026;49.446;8.576;2023-02-16T01:44:48;101645.16;;;11.38;39.78
38227;BME280;24026;49.446;8.576;2023-02-16T01:47:24;101648.03;;;11.37;40.01
38227;BME280;24026;49.446;8.576;2023-02-16T01:49:48;101641.69;;;11.38;39.67
38227;BME280;24026;49.446;8.576;2023-02-16T01:52:21;101645.38;;;11.37;39.87
38227;BME280;24026;49.446;8.576;2023-02-16T01:55:17;101643.78;;;11.29;39.91
38227;BME280;24026;49.446;8.576;2023-02-16T01:57:44;101654.38;;;11.36;39.75
38227;BME280;24026;49.446;8.576;2023-02-16T02:00:07;101657.03;;;11.36;39.74
38227;BME280;24026;49.446;8.576;2023-02-16T02:02:33;101648.44;;;11.34;39.67
38227;BME280;24026;49.446;8.576;2023-02-16T02:04:58;101639.66;;;11.33;39.71
38227;BME280;24026;49.446;8.576;2023-02-16T02:07:57;101645.19;;;11.31;39.96
38227;BME280;24026;49.446;8.576;2023-02-16T02:15:36;101628.63;;;11.29;39.86
38227;BME280;24026;49.446;8.576;2023-02-16T02:17:57;101622.47;;;11.29;39.87
38227;BME280;24026;49.446;8.576;2023-02-16T02:20:51;101620.91;;;11.21;40.08
38227;BME280;24026;49.446;8.576;2023-02-16T02:37:53;101609.88;;;11.18;40.40
38227;BME280;24026;49.446;8.576;2023-02-16T02:45:47;101616.22;;;11.17;39.99
38227;BME280;24026;49.446;8.576;2023-02-16T02:48:10;101621.34;;;11.18;39.97
38227;BME280;24026;49.446;8.576;2023-02-16T02:52:58;101613.34;;;11.18;39.91
38227;BME280;24026;49.446;8.576;2023-02-16T02:55:20;101612.97;;;11.15;39.97
38227;BME280;24026;49.446;8.576;2023-02-16T02:58:00;101609.47;;;11.14;39.96
38227;BME280;24026;49.446;8.576;2023-02-16T03:00:43;101607.66;;;11.15;40.02
38227;BME280;24026;49.446;8.576;2023-02-16T03:03:23;101604.16;;;11.14;39.91
38227;BME280;24026;49.446;8.576;2023-02-16T03:05:52;101611.53;;;11.12;39.95
38227;BME280;24026;49.446;8.576;2023-02-16T03:08:16;101618.50;;;11.13;40.03
38227;BME280;24026;49.446;8.576;2023-02-16T03:10:40;101623.84;;;11.13;40.03
38227;BME280;24026;49.446;8.576;2023-02-16T03:13:23;101625.28;;;11.09;39.90
38227;BME280;24026;49.446;8.576;2023-02-16T03:15:45;101614.41;;;11.10;40.09
38227;BME280;24026;49.446;8.576;2023-02-16T03:18:09;101617.50;;;11.07;40.22
38227;BME280;24026;49.446;8.576;2023-02-16T03:20:50;101614.63;;;11.09;40.02
38227;BME280;24026;49.446;8.576;2023-02-16T03:23:30;101611.38;;;11.07;40.11
38227;BME280;24026;49.446;8.576;2023-02-16T03:26:10;101611.59;;;11.05;40.05
38227;BME280;24026;49.446;8.576;2023-02-16T03:28:50;101611.00;;;11.03;40.14
38227;BME280;24026;49.446;8.576;2023-02-16T03:31:34;101607.31;;;11.04;40.16
38227;BME280;24026;49.446;8.576;2023-02-16T03:33:57;101611.81;;;11.04;40.19
38227;BME280;24026;49.446;8.576;2023-02-16T03:36:18;101612.84;;;11.03;40.24
38227;BME280;24026;49.446;8.576;2023-02-16T03:38:38;101616.31;;;11.03;40.11
38227;BME280;24026;49.446;8.576;2023-02-16T03:40:59;101610.41;;;11.01;40.17
38227;BME280;24026;49.446;8.576;2023-02-16T03:43:24;101623.91;;;11.00;40.25
38227;BME280;24026;49.446;8.576;2023-02-16T03:45:44;101621.47;;;10.98;40.15
38227;BME280;24026;49.446;8.576;2023-02-16T03:48:05;101624.72;;;11.00;40.20
38227;BME280;24026;49.446;8.576;2023-02-16T03:50:26;101614.28;;;10.99;40.29
38227;BME280;24026;49.446;8.576;2023-02-16T03:52:47;101616.56;;;10.95;40.46
38227;BME280;24026;49.446;8.576;2023-02-16T03:55:08;101620.03;;;10.96;40.16
38227;BME280;24026;49.446;8.576;2023-02-16T03:57:29;101622.47;;;10.97;40.16
38227;BME280;24026;49.446;8.576;2023-02-16T03:59:49;101624.34;;;10.97;40.11
38227;BME280;24026;49.446;8.576;2023-02-16T04:02:11;101627.22;;;10.95;40.33
38227;BME280;24026;49.446;8.576;2023-02-16T04:04:31;101623.38;;;10.91;40.58
38227;BME280;24026;49.446;8.576;2023-02-16T04:06:51;101622.94;;;10.87;40.49
38227;BME280;24026;49.446;8.576;2023-02-16T04:09:12;101613.75;;;10.90;40.34
38227;BME280;24026;49.446;8.576;2023-02-16T04:11:32;101616.41;;;10.90;40.50
38227;BME280;24026;49.446;8.576;2023-02-16T04:14:11;101605.75;;;10.90;40.48
38227;BME280;24026;49.446;8.576;2023-02-16T04:16:32;101616.19;;;10.91;40.50
38227;BME280;24026;49.446;8.576;2023-02-16T04:18:52;101615.38;;;10.91;40.37
38227;BME280;24026;49.446;8.576;2023-02-16T04:21:13;101614.53;;;10.90;40.24
38227;BME280;24026;49.446;8.576;2023-02-16T04:23:33;101615.38;;;10.91;40.51
38227;BME280;24026;49.446;8.576;2023-02-16T04:25:53;101612.72;;;10.91;40.49
38227;BME280;24026;49.446;8.576;2023-02-16T04:28:14;101623.56;;;10.89;40.45
38227;BME280;24026;49.446;8.576;2023-02-16T04:30:34;101633.38;;;10.89;40.63
38227;BME280;24026;49.446;8.576;2023-02-16T04:32:55;101633.16;;;10.90;40.44
38227;BME280;24026;49.446;8.576;2023-02-16T04:35:16;101632.34;;;10.90;40.61
38227;BME280;24026;49.446;8.576;2023-02-16T04:37:37;101632.34;;;10.90;40.60
38227;BME280;24026;49.446;8.576;2023-02-16T04:39:57;101629.69;;;10.90;40.57
38227;BME280;24026;49.446;8.576;2023-02-16T04:42:17;101623.56;;;10.89;40.44
38227;BME280;24026;49.446;8.576;2023-02-16T04:44:38;101618.25;;;10.89;40.61
38227;BME280;24026;49.446;8.576;2023-02-16T04:46:58;101611.28;;;10.88;40.73
38227;BME280;24026;49.446;8.576;2023-02-16T04:49:19;101622.13;;;10.87;41.01
38227;BME280;24026;49.446;8.576;2023-02-16T04:51:39;101618.47;;;10.88;40.79
38227;BME280;24026;49.446;8.576;2023-02-16T04:54:00;101617.63;;;10.87;40.66
38227;BME280;24026;49.446;8.576;2023-02-16T04:56:20;101616.00;;;10.86;40.77
38227;BME280;24026;49.446;8.576;2023-02-16T04:58:41;101619.88;;;10.90;40.79
38227;BME280;24026;49.446;8.576;2023-02-16T05:01:01;101616.75;;;11.00;40.34
38227;BME280;24026;49.446;8.576;2023-02-16T05:03:22;101615.00;;;11.12;40.29
38227;BME280;24026;49.446;8.576;2023-02-16T05:05:42;101616.78;;;11.25;40.05
38227;BME280;24026;49.446;8.576;2023-02-16T05:08:03;101623.22;;;11.43;39.79
38227;BME280;24026;49.446;8.576;2023-02-16T05:10:23;101618.16;;;11.60;39.33
38227;BME280;24026;49.446;8.576;2023-02-16T05:12:43;101622.31;;;11.74;39.04
38227;BME280;24026;49.446;8.576;2023-02-16T05:15:23;101620.31;;;11.95;38.67
38227;BME280;24026;49.446;8.576;2023-02-16T05:17:43;101620.41;;;12.07;38.39
38227;BME280;24026;49.446;8.576;2023-02-16T05:20:04;101626.63;;;12.19;38.30
38227;BME280;24026;49.446;8.576;2023-02-16T05:22:26;101613.56;;;12.29;38.21
38227;BME280;24026;49.446;8.576;2023-02-16T05:24:48;101617.13;;;12.41;38.04
38227;BME280;24026;49.446;8.576;2023-02-16T05:27:12;101615.78;;;12.51;37.76
38227;BME280;24026;49.446;8.576;2023-02-16T05:29:33;101615.03;;;12.62;37.60
38227;BME280;24026;49.446;8.576;2023-02-16T05:31:54;101615.31;;;12.72;37.34
38227;BME280;24026;49.446;8.576;2023-02-16T05:34:14;101613.50;;;12.85;37.26
38227;BME280;24026;49.446;8.576;2023-02-16T05:36:35;101628.72;;;12.96;36.94
38227;BME280;24026;49.446;8.576;2023-02-16T05:38:55;101620.63;;;13.03;36.71
38227;BME280;24026;49.446;8.576;2023-02-16T05:41:16;101618.47;;;13.11;36.78
38227;BME280;24026;49.446;8.576;2023-02-16T05:43:42;101617.53;;;13.18;36.80
38227;BME280;24026;49.446;8.576;2023-02-16T05:46:07;101612.09;;;13.24;36.50
38227;BME280;24026;49.446;8.576;2023-02-16T05:48:27;101616.50;;;13.30;36.64
38227;BME280;24026;49.446;8.576;2023-02-16T05:50:48;101625.03;;;13.39;36.33
38227;BME280;24026;49.446;8.576;2023-02-16T05:53:08;101629.22;;;13.47;36.30
38227;BME280;24026;49.446;8.576;2023-02-16T05:55:32;101623.78;;;13.53;36.03
38227;BME280;24026;49.446;8.576;2023-02-16T05:57:53;101626.91;;;13.62;36.10
38227;BME280;24026;49.446;8.576;2023-02-16T06:00:20;101628.44;;;13.70;35.80
38227;BME280;24026;49.446;8.576;2023-02-16T06:02:41;101627.84;;;13.80;35.90
38227;BME280;24026;49.446;8.576;2023-02-16T06:05:01;101620.53;;;13.87;35.78
38227;BME280;24026;49.446;8.576;2023-02-16T06:07:22;101616.91;;;13.93;35.61
38227;BME280;24026;49.446;8.576;2023-02-16T06:09:42;101625.88;;;13.99;35.71
38227;BME280;24026;49.446;8.576;2023-02-16T06:12:03;101630.72;;;14.14;35.55
38227;BME280;24026;49.446;8.576;2023-02-16T06:14:23;101639.19;;;14.22;35.52
38227;BME280;24026;49.446;8.576;2023-02-16T06:16:46;101641.03;;;14.34;35.54
38227;BME280;24026;49.446;8.576;2023-02-16T06:19:07;101632.66;;;14.42;35.66
38227;BME280;24026;49.446;8.576;2023-02-16T06:21:28;101632.03;;;14.52;35.57
38227;BME280;24026;49.446;8.576;2023-02-16T06:23:49;101633.97;;;14.56;35.45
38227;BME280;24026;49.446;8.576;2023-02-16T06:26:09;101635.75;;;14.62;35.48
38227;BME280;24026;49.446;8.576;2023-02-16T06:28:30;101628.75;;;14.61;35.65
38227;BME280;24026;49.446;8.576;2023-02-16T06:30:50;101626.44;;;14.53;35.66
38227;BME280;24026;49.446;8.576;2023-02-16T06:33:11;101626.44;;;14.65;35.57
38227;BME280;24026;49.446;8.576;2023-02-16T06:35:31;101635.47;;;14.76;35.71
38227;BME280;24026;49.446;8.576;2023-02-16T06:37:51;101640.75;;;14.88;35.39
38227;BME280;24026;49.446;8.576;2023-02-16T06:40:13;101652.47;;;14.98;35.24
38227;BME280;24026;49.446;8.576;2023-02-16T06:42:34;101652.44;;;15.10;35.00
38227;BME280;24026;49.446;8.576;2023-02-16T06:44:54;101651.13;;;15.13;35.00
38227;BME280;24026;49.446;8.576;2023-02-16T06:47:15;101643.72;;;15.20;35.00
38227;BME280;24026;49.446;8.576;2023-02-16T06:49:35;101644.41;;;15.27;34.96
38227;BME280;24026;49.446;8.576;2023-02-16T06:51:56;101650.97;;;15.36;34.85
38227;BME280;24026;49.446;8.576;2023-02-16T06:54:17;101652.44;;;15.44;34.65
38227;BME280;24026;49.446;8.576;2023-02-16T06:56:38;101664.88;;;15.50;34.62
38227;BME280;24026;49.446;8.576;2023-02-16T06:58:59;101666.81;;;15.55;34.44
38227;BME280;24026;49.446;8.576;2023-02-16T07:01:19;101666.41;;;15.63;34.39
38227;BME280;24026;49.446;8.576;2023-02-16T07:03:42;101677.34;;;15.62;34.51
38227;BME280;24026;49.446;8.576;2023-02-16T07:06:03;101673.63;;;15.63;34.28
38227;BME280;24026;49.446;8.576;2023-02-16T07:08:23;101669.31;;;15.45;34.60
38227;BME280;24026;49.446;8.576;2023-02-16T07:10:45;101668.66;;;15.21;34.66
38227;BME280;24026;49.446;8.576;2023-02-16T07:13:06;101668.13;;;15.07;35.21
38227;BME280;24026;49.446;8.576;2023-02-16T07:15:26;101674.38;;;14.95;35.34
38227;BME280;24026;49.446;8.576;2023-02-16T07:17:48;101675.47;;;14.82;35.63
38227;BME280;24026;49.446;8.576;2023-02-16T07:20:10;101674.59;;;14.65;35.84
38227;BME280;24026;49.446;8.576;2023-02-16T07:22:33;101685.66;;;14.69;35.83
38227;BME280;24026;49.446;8.576;2023-02-16T07:24:54;101680.19;;;14.63;35.89
38227;BME280;24026;49.446;8.576;2023-02-16T07:27:16;101677.50;;;14.63;36.03
38227;BME280;24026;49.446;8.576;2023-02-16T07:29:36;101671.56;;;14.61;35.71
38227;BME280;24026;49.446;8.576;2023-02-16T07:31:57;101677.25;;;14.77;35.53
38227;BME280;24026;49.446;8.576;2023-02-16T07:34:17;101681.06;;;14.81;35.25
38227;BME280;24026;49.446;8.576;2023-02-16T07:36:38;101678.22;;;14.88;35.17
38227;BME280;24026;49.446;8.576;2023-02-16T07:38:58;101673.63;;;15.00;35.20
38227;BME280;24026;49.446;8.576;2023-02-16T07:41:19;101679.69;;;15.07;35.25
38227;BME280;24026;49.446;8.576;2023-02-16T07:43:39;101675.53;;;15.16;35.29
38227;BME280;24026;49.446;8.576;2023-02-16T07:46:02;101677.81;;;15.25;35.21
38227;BME280;24026;49.446;8.576;2023-02-16T07:48:22;101680.44;;;15.36;35.25
38227;BME280;24026;49.446;8.576;2023-02-16T07:50:43;101674.69;;;15.45;35.06
38227;BME280;24026;49.446;8.576;2023-02-16T07:53:04;101676.72;;;15.54;34.88
38227;BME280;24026;49.446;8.576;2023-02-16T07:55:24;101668.53;;;15.61;34.86
38227;BME280;24026;49.446;8.576;2023-02-16T07:57:44;101658.69;;;15.67;34.80
38227;BME280;24026;49.446;8.576;2023-02-16T08:00:07;101668.19;;;15.74;34.62
38227;BME280;24026;49.446;8.576;2023-02-16T08:02:28;101669.69;;;15.82;34.52
38227;BME280;24026;49.446;8.576;2023-02-16T08:04:49;101667.31;;;15.86;34.29
38227;BME280;24026;49.446;8.576;2023-02-16T08:07:12;101662.09;;;15.96;33.92
38227;BME280;24026;49.446;8.576;2023-02-16T08:09:33;101664.53;;;15.98;34.19
38227;BME280;24026;49.446;8.576;2023-02-16T08:11:54;101662.16;;;16.01;33.88
38227;BME280;24026;49.446;8.576;2023-02-16T08:14:15;101668.34;;;16.02;34.06
38227;BME280;24026;49.446;8.576;2023-02-16T08:16:35;101670.56;;;15.88;34.13
38227;BME280;24026;49.446;8.576;2023-02-16T08:18:57;101679.81;;;15.80;34.43
38227;BME280;24026;49.446;8.576;2023-02-16T08:21:21;101680.28;;;15.60;34.95
38227;BME280;24026;49.446;8.576;2023-02-16T08:23:45;101677.34;;;15.45;35.00
38227;BME280;24026;49.446;8.576;2023-02-16T08:26:11;101680.75;;;15.40;34.92
38227;BME280;24026;49.446;8.576;2023-02-16T08:28:32;101684.59;;;15.27;34.86
38227;BME280;24026;49.446;8.576;2023-02-16T08:30:52;101677.41;;;15.16;35.03
38227;BME280;24026;49.446;8.576;2023-02-16T08:33:13;101669.19;;;15.06;35.19
38227;BME280;24026;49.446;8.576;2023-02-16T08:35:36;101676.53;;;15.10;34.94
38227;BME280;24026;49.446;8.576;2023-02-16T08:37:58;101674.66;;;15.11;35.13
38227;BME280;24026;49.446;8.576;2023-02-16T08:40:18;101672.44;;;15.08;35.10
38227;BME280;24026;49.446;8.576;2023-02-16T08:42:43;101677.81;;;15.08;35.34
38227;BME280;24026;49.446;8.576;2023-02-16T08:45:05;101678.28;;;15.05;35.25
38227;BME280;24026;49.446;8.576;2023-02-16T08:47:25;101679.19;;;14.81;35.71
38227;BME280;24026;49.446;8.576;2023-02-16T08:49:46;101686.59;;;14.91;35.56
38227;BME280;24026;49.446;8.576;2023-02-16T08:52:06;101685.66;;;14.97;35.42
38227;BME280;24026;49.446;8.576;2023-02-16T08:54:28;101682.41;;;14.95;35.48
38227;BME280;24026;49.446;8.576;2023-02-16T08:56:49;101682.69;;;15.11;35.34
38227;BME280;24026;49.446;8.576;2023-02-16T08:59:09;101677.25;;;15.23;35.10
38227;BME280;24026;49.446;8.576;2023-02-16T09:01:30;101689.53;;;15.35;34.86
38227;BME280;24026;49.446;8.576;2023-02-16T09:03:52;101678.19;;;15.45;34.74
38227;BME280;24026;49.446;8.576;2023-02-16T09:06:14;101675.19;;;15.59;34.45
38227;BME280;24026;49.446;8.576;2023-02-16T09:08:36;101676.88;;;15.65;34.49
38227;BME280;24026;49.446;8.576;2023-02-16T09:11:03;101672.97;;;15.72;34.52
38227;BME280;24026;49.446;8.576;2023-02-16T09:13:25;101673.72;;;15.85;34.25
38227;BME280;24026;49.446;8.576;2023-02-16T09:15:45;101672.03;;;15.96;34.04
38227;BME280;24026;49.446;8.576;2023-02-16T09:18:06;101670.84;;;16.08;33.96
38227;BME280;24026;49.446;8.576;2023-02-16T09:20:28;101680.59;;;16.15;34.21
38227;BME280;24026;49.446;8.576;2023-02-16T09:22:48;101690.56;;;16.19;33.92
38227;BME280;24026;49.446;8.576;2023-02-16T09:25:10;101689.31;;;16.27;33.96
38227;BME280;24026;49.446;8.576;2023-02-16T09:27:31;101681.22;;;16.22;34.15
38227;BME280;24026;49.446;8.576;2023-02-16T09:29:53;101685.88;;;16.09;34.30
38227;BME280;24026;49.446;8.576;2023-02-16T09:32:13;101681.44;;;15.98;34.51
38227;BME280;24026;49.446;8.576;2023-02-16T09:34:35;101682.41;;;15.92;34.67
38227;BME280;24026;49.446;8.576;2023-02-16T09:36:56;101666.31;;;15.75;35.28
38227;BME280;24026;49.446;8.576;2023-02-16T09:39:17;101683.00;;;15.77;35.64
38227;BME280;24026;49.446;8.576;2023-02-16T09:44:29;101685.91;;;15.59;35.87
38227;BME280;24026;49.446;8.576;2023-02-16T09:46:57;101689.47;;;15.64;36.04
38227;BME280;24026;49.446;8.576;2023-02-16T09:49:32;101690.44;;;15.58;36.09
38227;BME280;24026;49.446;8.576;2023-02-16T09:52:17;101676.63;;;15.49;36.05
38227;BME280;24026;49.446;8.576;2023-02-16T09:54:55;101670.72;;;15.64;35.95
38227;BME280;24026;49.446;8.576;2023-02-16T10:00:20;101672.03;;;15.79;35.95
38227;BME280;24026;49.446;8.576;2023-02-16T10:05:42;101665.38;;;15.81;35.80
38227;BME280;24026;49.446;8.576;2023-02-16T10:08:11;101662.13;;;15.79;35.75
38227;BME280;24026;49.446;8.576;2023-02-16T10:10:45;101658.97;;;15.82;35.95
38227;BME280;24026;49.446;8.576;2023-02-16T10:15:36;101657.47;;;15.91;35.91
38227;BME280;24026;49.446;8.576;2023-02-16T10:18:01;101651.19;;;16.03;35.62
38227;BME280;24026;49.446;8.576;2023-02-16T10:20:26;101649.78;;;16.17;35.32
38227;BME280;24026;49.446;8.576;2023-02-16T10:25:45;101645.16;;;16.57;34.81
38227;BME280;24026;49.446;8.576;2023-02-16T10:31:01;101658.38;;;16.85;34.26
38227;BME280;24026;49.446;8.576;2023-02-16T10:33:42;101650.25;;;17.02;34.32
38227;BME280;24026;49.446;8.576;2023-02-16T10:36:32;101643.47;;;17.27;33.57
38227;BME280;24026;49.446;8.576;2023-02-16T10:39:03;101650.66;;;17.54;33.61
38227;BME280;24026;49.446;8.576;2023-02-16T10:41:32;101646.13;;;17.59;33.38
38227;BME280;24026;49.446;8.576;2023-02-16T10:44:00;101650.53;;;17.71;33.59
38227;BME280;24026;49.446;8.576;2023-02-16T10:46:25;101642.16;;;17.72;33.30
38227;BME280;24026;49.446;8.576;2023-02-16T10:48:54;101638.16;;;17.75;33.25
38227;BME280;24026;49.446;8.576;2023-02-16T10:51:15;101637.88;;;17.71;33.33
38227;BME280;24026;49.446;8.576;2023-02-16T10:56:56;101639.38;;;17.57;33.56
38227;BME280;24026;49.446;8.576;2023-02-16T10:59:22;101637.00;;;17.60;33.61
38227;BME280;24026;49.446;8.576;2023-02-16T11:01:45;101638.63;;;17.62;33.75
38227;BME280;24026;49.446;8.576;2023-02-16T11:04:06;101627.28;;;17.54;34.06
38227;BME280;24026;49.446;8.576;2023-02-16T11:06:27;101625.13;;;17.51;34.09
38227;BME280;24026;49.446;8.576;2023-02-16T11:08:50;101620.75;;;17.45;34.19
38227;BME280;24026;49.446;8.576;2023-02-16T11:11:13;101615.09;;;17.41;34.25
38227;BME280;24026;49.446;8.576;2023-02-16T11:13:35;101618.25;;;17.33;34.48
38227;BME280;24026;49.446;8.576;2023-02-16T11:16:08;101608.84;;;17.31;34.66
38227;BME280;24026;49.446;8.576;2023-02-16T11:18:33;101613.66;;;17.29;34.82
38227;BME280;24026;49.446;8.576;2023-02-16T11:20:56;101606.88;;;17.21;34.73
38227;BME280;24026;49.446;8.576;2023-02-16T11:26:06;101596.56;;;17.08;35.11
38227;BME280;24026;49.446;8.576;2023-02-16T11:28:42;101600.91;;;17.14;35.12
38227;BME280;24026;49.446;8.576;2023-02-16T11:31:09;101594.44;;;17.10;34.97
38227;BME280;24026;49.446;8.576;2023-02-16T11:33:31;101580.72;;;17.06;35.12
38227;BME280;24026;49.446;8.576;2023-02-16T11:35:52;101577.19;;;17.06;35.01
38227;BME280;24026;49.446;8.576;2023-02-16T11:38:34;101569.34;;;16.99;35.09
38227;BME280;24026;49.446;8.576;2023-02-16T11:40:56;101567.75;;;16.98;35.55
38227;BME280;24026;49.446;8.576;2023-02-16T11:43:18;101563.72;;;17.00;35.23
38227;BME280;24026;49.446;8.576;2023-02-16T11:45:39;101561.84;;;16.96;35.32
38227;BME280;24026;49.446;8.576;2023-02-16T11:48:05;101556.47;;;16.96;35.36
38227;BME280;24026;49.446;8.576;2023-02-16T11:50:33;101546.72;;;16.90;35.35
38227;BME280;24026;49.446;8.576;2023-02-16T11:55:30;101546.19;;;16.88;35.34
38227;BME280;24026;49.446;8.576;2023-02-16T11:57:53;101537.81;;;16.84;35.60
38227;BME280;24026;49.446;8.576;2023-02-16T12:00:18;101530.00;;;16.82;35.42
38227;BME280;24026;49.446;8.576;2023-02-16T12:11:15;101531.97;;;16.65;36.14
38227;BME280;24026;49.446;8.576;2023-02-16T12:22:15;101525.84;;;16.97;35.92
38227;BME280;24026;49.446;8.576;2023-02-16T12:30:07;101520.81;;;17.48;34.96
38227;BME280;24026;49.446;8.576;2023-02-16T12:32:48;101516.84;;;17.61;34.96
38227;BME280;24026;49.446;8.576;2023-02-16T12:35:32;101508.84;;;17.76;34.90
38227;BME280;24026;49.446;8.576;2023-02-16T12:38:00;101509.16;;;17.85;34.23
38227;BME280;24026;49.446;8.576;2023-02-16T12:43:37;101496.63;;;18.06;34.09
38227;BME280;24026;49.446;8.576;2023-02-16T12:46:04;101498.53;;;18.11;34.27
38227;BME280;24026;49.446;8.576;2023-02-16T12:48:53;101492.56;;;17.99;34.36
38227;BME280;24026;49.446;8.576;2023-02-16T12:51:25;101485.00;;;17.90;34.79
38227;BME280;24026;49.446;8.576;2023-02-16T12:53:55;101485.84;;;17.91;34.63
38227;BME280;24026;49.446;8.576;2023-02-16T12:56:25;101483.41;;;17.89;34.49
38227;BME280;24026;49.446;8.576;2023-02-16T12:58:49;101469.69;;;17.91;34.69
38227;BME280;24026;49.446;8.576;2023-02-16T13:01:15;101478.47;;;17.71;34.90
38227;BME280;24026;49.446;8.576;2023-02-16T13:03:56;101472.00;;;17.77;35.09
38227;BME280;24026;49.446;8.576;2023-02-16T13:06:49;101478.47;;;17.71;34.95
38227;BME280;24026;49.446;8.576;2023-02-16T13:09:16;101462.34;;;17.76;35.20
38227;BME280;24026;49.446;8.576;2023-02-16T13:14:05;101455.59;;;17.73;35.15
38227;BME280;24026;49.446;8.576;2023-02-16T13:18:57;101447.78;;;17.67;35.37
38227;BME280;24026;49.446;8.576;2023-02-16T13:24:12;101433.53;;;17.61;35.45
38227;BME280;24026;49.446;8.576;2023-02-16T13:32:33;101432.66;;;17.45;35.66
38227;BME280;24026;49.446;8.576;2023-02-16T13:40:44;101426.19;;;17.36;35.95
38227;BME280;24026;49.446;8.576;2023-02-16T13:43:35;101418.63;;;17.28;36.17
38227;BME280;24026;49.446;8.576;2023-02-16T13:45:59;101421.84;;;17.30;36.18
38227;BME280;24026;49.446;8.576;2023-02-16T13:48:25;101413.78;;;17.30;36.50
38227;BME280;24026;49.446;8.576;2023-02-16T13:50:55;101412.66;;;17.26;36.55
38227;BME280;24026;49.446;8.576;2023-02-16T13:53:18;101402.22;;;17.24;36.41
38227;BME280;24026;49.446;8.576;2023-02-16T13:55:40;101403.53;;;17.21;36.67
38227;BME280;24026;49.446;8.576;2023-02-16T13:58:26;101402.69;;;17.11;36.88
38227;BME280;24026;49.446;8.576;2023-02-16T14:00:48;101408.88;;;17.16;36.93
38227;BME280;24026;49.446;8.576;2023-02-16T14:03:33;101396.75;;;17.14;36.86
38227;BME280;24026;49.446;8.576;2023-02-16T14:05:54;101401.06;;;17.10;37.15
38227;BME280;24026;49.446;8.576;2023-02-16T14:08:34;101398.06;;;17.01;37.08
38227;BME280;24026;49.446;8.576;2023-02-16T14:10:57;101397.25;;;17.06;37.08
38227;BME280;24026;49.446;8.576;2023-02-16T14:13:30;101391.84;;;17.00;37.28
38227;BME280;24026;49.446;8.576;2023-02-16T14:15:53;101390.81;;;17.01;37.37
38227;BME280;24026;49.446;8.576;2023-02-16T14:18:30;101396.16;;;16.96;37.24